Terminal Aerodrome Forecast
Issued by NWS

Home | Current Version | Previous Version | Graphics & Text | Print | Product List | Glossary On
Versions: 1 2 3 4 5 6 7 8 9 10 11 12 13 14 15 16 17 18 19 20 21 22 23 24 25 26 27 28
000
FTUS42 KMHX 011722
TAFPGV
TAF
KPGV 011722Z 0118/0218 VRB03KT P6SM SCT025 SCT035
     FM020500 00000KT 4SM BR SCT005
     FM020900 00000KT 2SM BR SCT005
     FM021300 VRB03KT 5SM BR SCT250
     FM021700 VRB03KT P6SM BKN250
      AMD LTD TO CLD VIS AND WIND=

USA.gov is the U.S. government's official web portal to all federal, state and local government web resources and services.